sensor_id;sensor_type;location;lat;lon;timestamp;P1;durP1;ratioP1;P2;durP2;ratioP2
46921;SDS011;44039;48.336;10.454;2022-07-29T00:00:47;118.07;;;113.18;;
46921;SDS011;44039;48.336;10.454;2022-07-29T00:03:34;119.20;;;114.15;;
46921;SDS011;44039;48.336;10.454;2022-07-29T00:06:25;122.57;;;117.32;;
46921;SDS011;44039;48.336;10.454;2022-07-29T00:09:12;120.40;;;115.13;;
46921;SDS011;44039;48.336;10.454;2022-07-29T00:12:00;122.55;;;117.45;;
46921;SDS011;44039;48.336;10.454;2022-07-29T00:14:47;122.72;;;117.63;;
46921;SDS011;44039;48.336;10.454;2022-07-29T00:17:34;121.60;;;116.60;;
46921;SDS011;44039;48.336;10.454;2022-07-29T00:20:21;121.68;;;116.53;;
46921;SDS011;44039;48.336;10.454;2022-07-29T00:23:08;117.78;;;112.80;;
46921;SDS011;44039;48.336;10.454;2022-07-29T00:25:59;118.90;;;113.65;;
46921;SDS011;44039;48.336;10.454;2022-07-29T00:28:46;117.35;;;112.65;;
46921;SDS011;44039;48.336;10.454;2022-07-29T00:31:33;117.97;;;112.97;;
46921;SDS011;44039;48.336;10.454;2022-07-29T00:34:20;117.60;;;112.70;;
46921;SDS011;44039;48.336;10.454;2022-07-29T00:37:33;117.28;;;112.20;;
46921;SDS011;44039;48.336;10.454;2022-07-29T00:40:20;116.20;;;111.20;;
46921;SDS011;44039;48.336;10.454;2022-07-29T00:43:09;118.05;;;113.00;;
46921;SDS011;44039;48.336;10.454;2022-07-29T00:45:57;115.03;;;110.20;;
46921;SDS011;44039;48.336;10.454;2022-07-29T00:48:44;114.40;;;109.57;;
46921;SDS011;44039;48.336;10.454;2022-07-29T00:51:31;116.55;;;111.35;;
46921;SDS011;44039;48.336;10.454;2022-07-29T00:54:19;113.75;;;108.80;;
46921;SDS011;44039;48.336;10.454;2022-07-29T00:57:07;115.13;;;110.22;;
46921;SDS011;44039;48.336;10.454;2022-07-29T00:59:54;115.45;;;110.38;;
46921;SDS011;44039;48.336;10.454;2022-07-29T01:02:42;115.28;;;110.50;;
46921;SDS011;44039;48.336;10.454;2022-07-29T01:05:30;111.97;;;107.25;;
46921;SDS011;44039;48.336;10.454;2022-07-29T01:08:37;114.30;;;109.25;;
46921;SDS011;44039;48.336;10.454;2022-07-29T01:11:24;113.88;;;109.07;;
46921;SDS011;44039;48.336;10.454;2022-07-29T01:14:11;112.20;;;107.40;;
46921;SDS011;44039;48.336;10.454;2022-07-29T01:17:02;109.25;;;104.65;;
46921;SDS011;44039;48.336;10.454;2022-07-29T01:20:31;110.22;;;105.63;;
46921;SDS011;44039;48.336;10.454;2022-07-29T01:29:33;112.55;;;107.55;;
46921;SDS011;44039;48.336;10.454;2022-07-29T01:32:31;112.90;;;108.07;;
46921;SDS011;44039;48.336;10.454;2022-07-29T01:35:26;113.95;;;109.07;;
46921;SDS011;44039;48.336;10.454;2022-07-29T01:38:20;111.78;;;107.03;;
46921;SDS011;44039;48.336;10.454;2022-07-29T01:41:10;113.15;;;108.45;;
46921;SDS011;44039;48.336;10.454;2022-07-29T01:44:02;114.90;;;109.70;;
46921;SDS011;44039;48.336;10.454;2022-07-29T01:47:15;112.65;;;107.72;;
46921;SDS011;44039;48.336;10.454;2022-07-29T01:50:07;112.97;;;108.32;;
46921;SDS011;44039;48.336;10.454;2022-07-29T01:53:00;115.63;;;110.70;;
46921;SDS011;44039;48.336;10.454;2022-07-29T01:55:50;114.28;;;109.35;;
46921;SDS011;44039;48.336;10.454;2022-07-29T01:58:40;110.60;;;105.78;;
46921;SDS011;44039;48.336;10.454;2022-07-29T02:01:30;111.90;;;107.00;;
46921;SDS011;44039;48.336;10.454;2022-07-29T02:04:19;113.03;;;108.22;;
46921;SDS011;44039;48.336;10.454;2022-07-29T02:07:19;112.22;;;107.18;;
46921;SDS011;44039;48.336;10.454;2022-07-29T02:10:08;109.22;;;104.60;;
46921;SDS011;44039;48.336;10.454;2022-07-29T02:12:57;110.72;;;105.95;;
46921;SDS011;44039;48.336;10.454;2022-07-29T02:15:46;108.80;;;104.10;;
46921;SDS011;44039;48.336;10.454;2022-07-29T02:18:36;105.47;;;100.85;;
46921;SDS011;44039;48.336;10.454;2022-07-29T02:21:25;105.45;;;100.95;;
46921;SDS011;44039;48.336;10.454;2022-07-29T02:24:14;113.05;;;107.97;;
46921;SDS011;44039;48.336;10.454;2022-07-29T02:27:05;107.32;;;102.72;;
46921;SDS011;44039;48.336;10.454;2022-07-29T02:29:54;109.32;;;104.13;;
46921;SDS011;44039;48.336;10.454;2022-07-29T02:32:43;112.18;;;107.13;;
46921;SDS011;44039;48.336;10.454;2022-07-29T02:35:33;111.22;;;106.55;;
46921;SDS011;44039;48.336;10.454;2022-07-29T02:38:21;107.68;;;103.07;;
46921;SDS011;44039;48.336;10.454;2022-07-29T02:41:29;107.57;;;102.88;;
46921;SDS011;44039;48.336;10.454;2022-07-29T02:44:20;108.22;;;103.65;;
46921;SDS011;44039;48.336;10.454;2022-07-29T02:47:13;110.43;;;105.95;;
46921;SDS011;44039;48.336;10.454;2022-07-29T02:50:04;106.93;;;102.45;;
46921;SDS011;44039;48.336;10.454;2022-07-29T02:52:57;111.97;;;107.15;;
46921;SDS011;44039;48.336;10.454;2022-07-29T02:55:51;112.78;;;107.88;;
46921;SDS011;44039;48.336;10.454;2022-07-29T02:58:49;112.82;;;107.97;;
46921;SDS011;44039;48.336;10.454;2022-07-29T03:01:42;115.63;;;110.45;;
46921;SDS011;44039;48.336;10.454;2022-07-29T03:04:31;116.70;;;111.63;;
46921;SDS011;44039;48.336;10.454;2022-07-29T03:07:20;113.45;;;108.65;;
46921;SDS011;44039;48.336;10.454;2022-07-29T03:10:08;113.43;;;108.68;;
46921;SDS011;44039;48.336;10.454;2022-07-29T03:12:58;111.43;;;106.82;;
46921;SDS011;44039;48.336;10.454;2022-07-29T03:15:47;114.18;;;109.55;;
46921;SDS011;44039;48.336;10.454;2022-07-29T03:18:35;113.25;;;108.22;;
46921;SDS011;44039;48.336;10.454;2022-07-29T03:21:24;114.22;;;109.28;;
46921;SDS011;44039;48.336;10.454;2022-07-29T03:24:23;112.18;;;107.47;;
46921;SDS011;44039;48.336;10.454;2022-07-29T03:27:11;109.82;;;105.43;;
46921;SDS011;44039;48.336;10.454;2022-07-29T03:29:58;112.05;;;107.15;;
46921;SDS011;44039;48.336;10.454;2022-07-29T03:32:45;111.95;;;107.22;;
46921;SDS011;44039;48.336;10.454;2022-07-29T03:35:32;110.93;;;106.30;;
46921;SDS011;44039;48.336;10.454;2022-07-29T03:38:20;113.50;;;108.70;;
46921;SDS011;44039;48.336;10.454;2022-07-29T03:41:12;111.15;;;106.25;;
46921;SDS011;44039;48.336;10.454;2022-07-29T03:44:01;112.65;;;107.95;;
46921;SDS011;44039;48.336;10.454;2022-07-29T03:46:49;110.10;;;105.32;;
46921;SDS011;44039;48.336;10.454;2022-07-29T03:49:38;112.35;;;107.68;;
46921;SDS011;44039;48.336;10.454;2022-07-29T03:52:27;111.28;;;106.68;;
46921;SDS011;44039;48.336;10.454;2022-07-29T03:55:15;113.03;;;108.20;;
46921;SDS011;44039;48.336;10.454;2022-07-29T03:58:02;110.70;;;106.03;;
46921;SDS011;44039;48.336;10.454;2022-07-29T04:00:50;116.00;;;110.60;;
46921;SDS011;44039;48.336;10.454;2022-07-29T04:03:37;110.22;;;105.85;;
46921;SDS011;44039;48.336;10.454;2022-07-29T04:06:25;108.80;;;104.15;;
46921;SDS011;44039;48.336;10.454;2022-07-29T04:09:12;112.15;;;107.32;;
46921;SDS011;44039;48.336;10.454;2022-07-29T04:12:00;112.95;;;107.88;;
46921;SDS011;44039;48.336;10.454;2022-07-29T04:14:49;108.25;;;103.65;;
46921;SDS011;44039;48.336;10.454;2022-07-29T04:17:37;109.72;;;104.05;;
46921;SDS011;44039;48.336;10.454;2022-07-29T04:20:24;109.78;;;105.03;;
46921;SDS011;44039;48.336;10.454;2022-07-29T04:23:11;109.57;;;104.70;;
46921;SDS011;44039;48.336;10.454;2022-07-29T04:25:58;111.30;;;106.60;;
46921;SDS011;44039;48.336;10.454;2022-07-29T04:28:48;112.07;;;107.10;;
46921;SDS011;44039;48.336;10.454;2022-07-29T04:31:35;109.53;;;104.88;;
46921;SDS011;44039;48.336;10.454;2022-07-29T04:34:22;109.78;;;105.05;;
46921;SDS011;44039;48.336;10.454;2022-07-29T04:37:13;111.78;;;106.88;;
46921;SDS011;44039;48.336;10.454;2022-07-29T04:40:00;112.00;;;107.22;;
46921;SDS011;44039;48.336;10.454;2022-07-29T04:42:47;112.43;;;107.53;;
46921;SDS011;44039;48.336;10.454;2022-07-29T04:45:35;110.93;;;106.25;;
46921;SDS011;44039;48.336;10.454;2022-07-29T04:48:22;108.70;;;103.97;;
46921;SDS011;44039;48.336;10.454;2022-07-29T04:51:14;107.47;;;102.38;;
46921;SDS011;44039;48.336;10.454;2022-07-29T04:54:02;108.95;;;104.22;;
46921;SDS011;44039;48.336;10.454;2022-07-29T04:56:49;108.65;;;103.30;;
46921;SDS011;44039;48.336;10.454;2022-07-29T04:59:36;109.00;;;104.32;;
46921;SDS011;44039;48.336;10.454;2022-07-29T05:02:23;111.18;;;106.18;;
46921;SDS011;44039;48.336;10.454;2022-07-29T05:05:10;112.03;;;106.20;;
46921;SDS011;44039;48.336;10.454;2022-07-29T05:08:00;110.45;;;105.75;;
46921;SDS011;44039;48.336;10.454;2022-07-29T05:10:47;114.93;;;109.68;;
46921;SDS011;44039;48.336;10.454;2022-07-29T05:13:34;110.60;;;105.80;;
46921;SDS011;44039;48.336;10.454;2022-07-29T05:16:31;114.43;;;109.63;;
46921;SDS011;44039;48.336;10.454;2022-07-29T05:19:18;118.18;;;112.93;;
46921;SDS011;44039;48.336;10.454;2022-07-29T05:22:05;118.75;;;113.75;;
46921;SDS011;44039;48.336;10.454;2022-07-29T05:24:53;123.38;;;118.20;;
46921;SDS011;44039;48.336;10.454;2022-07-29T05:27:40;128.50;;;123.15;;
46921;SDS011;44039;48.336;10.454;2022-07-29T05:30:27;137.10;;;131.35;;
46921;SDS011;44039;48.336;10.454;2022-07-29T05:33:14;147.75;;;141.68;;
46921;SDS011;44039;48.336;10.454;2022-07-29T05:36:21;146.90;;;141.07;;
46921;SDS011;44039;48.336;10.454;2022-07-29T05:39:08;147.48;;;141.57;;
46921;SDS011;44039;48.336;10.454;2022-07-29T05:41:55;143.10;;;137.48;;
46921;SDS011;44039;48.336;10.454;2022-07-29T05:44:42;139.50;;;133.82;;
46921;SDS011;44039;48.336;10.454;2022-07-29T05:47:30;140.63;;;134.85;;
46921;SDS011;44039;48.336;10.454;2022-07-29T05:50:17;144.35;;;138.57;;
46921;SDS011;44039;48.336;10.454;2022-07-29T05:53:04;146.38;;;140.70;;
46921;SDS011;44039;48.336;10.454;2022-07-29T05:56:06;154.65;;;148.57;;
46921;SDS011;44039;48.336;10.454;2022-07-29T05:58:54;153.80;;;146.85;;
46921;SDS011;44039;48.336;10.454;2022-07-29T06:01:41;148.13;;;142.43;;
46921;SDS011;44039;48.336;10.454;2022-07-29T06:04:28;152.50;;;146.50;;
46921;SDS011;44039;48.336;10.454;2022-07-29T06:07:15;159.45;;;153.55;;
46921;SDS011;44039;48.336;10.454;2022-07-29T06:10:03;165.02;;;158.93;;
46921;SDS011;44039;48.336;10.454;2022-07-29T06:12:50;165.35;;;159.07;;
46921;SDS011;44039;48.336;10.454;2022-07-29T06:15:37;164.23;;;158.13;;
46921;SDS011;44039;48.336;10.454;2022-07-29T06:18:25;165.13;;;159.00;;
46921;SDS011;44039;48.336;10.454;2022-07-29T06:21:12;175.75;;;169.45;;
46921;SDS011;44039;48.336;10.454;2022-07-29T06:23:59;170.55;;;164.30;;
46921;SDS011;44039;48.336;10.454;2022-07-29T06:26:47;177.70;;;171.38;;
46921;SDS011;44039;48.336;10.454;2022-07-29T06:29:34;194.40;;;187.50;;
46921;SDS011;44039;48.336;10.454;2022-07-29T06:32:21;202.52;;;195.48;;
46921;SDS011;44039;48.336;10.454;2022-07-29T06:35:12;194.88;;;187.85;;
46921;SDS011;44039;48.336;10.454;2022-07-29T06:38:20;176.38;;;169.98;;
46921;SDS011;44039;48.336;10.454;2022-07-29T06:41:19;177.32;;;170.73;;
46921;SDS011;44039;48.336;10.454;2022-07-29T06:44:06;172.73;;;166.45;;
46921;SDS011;44039;48.336;10.454;2022-07-29T06:46:53;186.10;;;179.02;;
46921;SDS011;44039;48.336;10.454;2022-07-29T06:49:41;190.27;;;182.75;;
46921;SDS011;44039;48.336;10.454;2022-07-29T06:52:28;188.95;;;182.27;;
46921;SDS011;44039;48.336;10.454;2022-07-29T06:55:16;189.43;;;182.77;;
46921;SDS011;44039;48.336;10.454;2022-07-29T06:58:10;184.57;;;177.88;;
46921;SDS011;44039;48.336;10.454;2022-07-29T07:01:00;176.40;;;169.85;;
46921;SDS011;44039;48.336;10.454;2022-07-29T07:03:49;177.35;;;170.98;;
46921;SDS011;44039;48.336;10.454;2022-07-29T07:06:36;180.68;;;174.07;;
46921;SDS011;44039;48.336;10.454;2022-07-29T07:09:25;176.73;;;169.65;;
46921;SDS011;44039;48.336;10.454;2022-07-29T07:12:25;165.52;;;159.48;;
46921;SDS011;44039;48.336;10.454;2022-07-29T07:15:12;168.07;;;161.90;;
46921;SDS011;44039;48.336;10.454;2022-07-29T07:17:59;171.25;;;164.75;;
46921;SDS011;44039;48.336;10.454;2022-07-29T07:20:47;161.93;;;155.73;;
46921;SDS011;44039;48.336;10.454;2022-07-29T07:23:34;159.52;;;153.45;;
46921;SDS011;44039;48.336;10.454;2022-07-29T07:26:21;154.23;;;148.43;;
46921;SDS011;44039;48.336;10.454;2022-07-29T07:29:08;146.75;;;140.85;;
46921;SDS011;44039;48.336;10.454;2022-07-29T07:31:56;146.23;;;140.52;;
46921;SDS011;44039;48.336;10.454;2022-07-29T07:34:46;144.45;;;138.68;;
46921;SDS011;44039;48.336;10.454;2022-07-29T07:37:33;141.73;;;136.13;;
46921;SDS011;44039;48.336;10.454;2022-07-29T07:40:21;137.85;;;132.43;;
46921;SDS011;44039;48.336;10.454;2022-07-29T07:43:08;136.57;;;131.05;;
46921;SDS011;44039;48.336;10.454;2022-07-29T07:45:55;138.43;;;133.05;;
46921;SDS011;44039;48.336;10.454;2022-07-29T07:48:42;138.98;;;133.38;;
46921;SDS011;44039;48.336;10.454;2022-07-29T07:51:29;136.48;;;130.95;;
46921;SDS011;44039;48.336;10.454;2022-07-29T07:54:16;140.50;;;135.00;;
46921;SDS011;44039;48.336;10.454;2022-07-29T07:57:06;135.23;;;129.90;;
46921;SDS011;44039;48.336;10.454;2022-07-29T07:59:53;138.07;;;132.65;;
46921;SDS011;44039;48.336;10.454;2022-07-29T08:02:40;137.25;;;131.95;;
46921;SDS011;44039;48.336;10.454;2022-07-29T08:05:29;136.38;;;131.05;;
46921;SDS011;44039;48.336;10.454;2022-07-29T08:08:16;142.70;;;136.85;;
46921;SDS011;44039;48.336;10.454;2022-07-29T08:11:04;143.13;;;137.23;;
46921;SDS011;44039;48.336;10.454;2022-07-29T08:13:55;142.38;;;136.75;;
46921;SDS011;44039;48.336;10.454;2022-07-29T08:16:42;143.38;;;137.82;;
46921;SDS011;44039;48.336;10.454;2022-07-29T08:19:29;145.90;;;140.00;;
46921;SDS011;44039;48.336;10.454;2022-07-29T08:22:16;143.40;;;137.73;;
46921;SDS011;44039;48.336;10.454;2022-07-29T08:25:04;142.48;;;136.80;;
46921;SDS011;44039;48.336;10.454;2022-07-29T08:27:51;146.77;;;141.18;;
46921;SDS011;44039;48.336;10.454;2022-07-29T08:30:38;148.40;;;142.57;;
46921;SDS011;44039;48.336;10.454;2022-07-29T08:33:25;151.85;;;145.77;;
46921;SDS011;44039;48.336;10.454;2022-07-29T08:36:12;171.85;;;165.27;;
46921;SDS011;44039;48.336;10.454;2022-07-29T08:39:00;179.15;;;171.90;;
46921;SDS011;44039;48.336;10.454;2022-07-29T08:41:47;168.82;;;162.77;;
46921;SDS011;44039;48.336;10.454;2022-07-29T08:44:43;171.07;;;164.63;;
46921;SDS011;44039;48.336;10.454;2022-07-29T08:47:31;182.18;;;175.60;;
46921;SDS011;44039;48.336;10.454;2022-07-29T08:50:18;192.57;;;185.52;;
46921;SDS011;44039;48.336;10.454;2022-07-29T08:53:06;201.50;;;194.65;;
46921;SDS011;44039;48.336;10.454;2022-07-29T08:55:57;211.65;;;204.38;;
46921;SDS011;44039;48.336;10.454;2022-07-29T08:58:46;210.73;;;203.18;;
46921;SDS011;44039;48.336;10.454;2022-07-29T09:01:38;209.40;;;202.10;;
46921;SDS011;44039;48.336;10.454;2022-07-29T09:04:31;209.90;;;202.55;;
46921;SDS011;44039;48.336;10.454;2022-07-29T09:07:21;221.88;;;214.32;;
46921;SDS011;44039;48.336;10.454;2022-07-29T09:10:08;219.82;;;212.52;;
46921;SDS011;44039;48.336;10.454;2022-07-29T09:12:55;223.65;;;216.20;;
46921;SDS011;44039;48.336;10.454;2022-07-29T09:15:43;231.85;;;223.95;;
46921;SDS011;44039;48.336;10.454;2022-07-29T09:18:41;227.48;;;219.80;;
46921;SDS011;44039;48.336;10.454;2022-07-29T09:21:33;224.73;;;216.82;;
46921;SDS011;44039;48.336;10.454;2022-07-29T09:24:46;228.27;;;220.48;;
46921;SDS011;44039;48.336;10.454;2022-07-29T09:27:34;226.63;;;218.95;;
46921;SDS011;44039;48.336;10.454;2022-07-29T09:30:22;227.15;;;219.43;;
46921;SDS011;44039;48.336;10.454;2022-07-29T09:33:16;229.80;;;221.80;;
46921;SDS011;44039;48.336;10.454;2022-07-29T09:36:05;231.85;;;223.93;;
46921;SDS011;44039;48.336;10.454;2022-07-29T09:38:57;240.80;;;232.18;;
46921;SDS011;44039;48.336;10.454;2022-07-29T09:41:51;228.98;;;221.25;;
46921;SDS011;44039;48.336;10.454;2022-07-29T09:44:43;229.35;;;221.55;;
46921;SDS011;44039;48.336;10.454;2022-07-29T09:47:42;228.57;;;220.93;;
46921;SDS011;44039;48.336;10.454;2022-07-29T09:50:36;226.60;;;218.77;;
46921;SDS011;44039;48.336;10.454;2022-07-29T09:56:37;232.00;;;223.82;;
46921;SDS011;44039;48.336;10.454;2022-07-29T09:59:28;224.48;;;216.88;;
46921;SDS011;44039;48.336;10.454;2022-07-29T10:02:15;224.48;;;216.75;;
46921;SDS011;44039;48.336;10.454;2022-07-29T10:05:22;220.52;;;213.13;;
46921;SDS011;44039;48.336;10.454;2022-07-29T10:08:10;210.52;;;203.23;;
46921;SDS011;44039;48.336;10.454;2022-07-29T10:13:59;209.32;;;202.07;;
46921;SDS011;44039;48.336;10.454;2022-07-29T10:16:49;211.05;;;203.60;;
46921;SDS011;44039;48.336;10.454;2022-07-29T10:19:37;207.75;;;200.38;;
46921;SDS011;44039;48.336;10.454;2022-07-29T10:22:24;222.90;;;215.00;;
46921;SDS011;44039;48.336;10.454;2022-07-29T10:25:32;235.25;;;227.30;;
46921;SDS011;44039;48.336;10.454;2022-07-29T10:28:19;247.68;;;239.18;;
46921;SDS011;44039;48.336;10.454;2022-07-29T10:31:06;251.90;;;243.25;;
46921;SDS011;44039;48.336;10.454;2022-07-29T10:43:16;228.98;;;220.80;;
46921;SDS011;44039;48.336;10.454;2022-07-29T10:46:06;216.07;;;208.38;;
46921;SDS011;44039;48.336;10.454;2022-07-29T10:49:16;202.35;;;194.45;;
46921;SDS011;44039;48.336;10.454;2022-07-29T10:54:52;192.15;;;185.07;;
46921;SDS011;44039;48.336;10.454;2022-07-29T10:57:40;189.65;;;182.95;;
46921;SDS011;44039;48.336;10.454;2022-07-29T11:01:29;197.57;;;190.48;;
46921;SDS011;44039;48.336;10.454;2022-07-29T11:07:30;205.52;;;198.23;;
46921;SDS011;44039;48.336;10.454;2022-07-29T11:10:32;228.52;;;220.55;;
46921;SDS011;44039;48.336;10.454;2022-07-29T11:17:17;210.52;;;203.23;;
46921;SDS011;44039;48.336;10.454;2022-07-29T11:19:47;199.43;;;192.68;;
46921;SDS011;44039;48.336;10.454;2022-07-29T11:22:37;200.30;;;193.32;;
46921;SDS011;44039;48.336;10.454;2022-07-29T11:25:32;203.23;;;196.13;;
46921;SDS011;44039;48.336;10.454;2022-07-29T11:28:39;202.73;;;195.55;;
46921;SDS011;44039;48.336;10.454;2022-07-29T11:31:43;197.73;;;190.68;;
46921;SDS011;44039;48.336;10.454;2022-07-29T11:34:32;193.85;;;186.95;;
46921;SDS011;44039;48.336;10.454;2022-07-29T11:37:20;192.30;;;185.50;;
46921;SDS011;44039;48.336;10.454;2022-07-29T11:40:14;193.68;;;186.82;;
46921;SDS011;44039;48.336;10.454;2022-07-29T11:43:03;193.55;;;186.82;;
46921;SDS011;44039;48.336;10.454;2022-07-29T11:45:53;191.15;;;184.43;;
46921;SDS011;44039;48.336;10.454;2022-07-29T11:48:43;191.38;;;184.35;;
46921;SDS011;44039;48.336;10.454;2022-07-29T11:51:31;192.57;;;185.55;;
46921;SDS011;44039;48.336;10.454;2022-07-29T11:54:39;191.80;;;185.05;;
46921;SDS011;44039;48.336;10.454;2022-07-29T12:00:55;190.43;;;183.30;;
46921;SDS011;44039;48.336;10.454;2022-07-29T12:03:50;191.98;;;184.93;;
46921;SDS011;44039;48.336;10.454;2022-07-29T12:06:53;193.23;;;186.23;;
46921;SDS011;44039;48.336;10.454;2022-07-29T12:09:50;191.45;;;184.05;;
46921;SDS011;44039;48.336;10.454;2022-07-29T12:12:42;180.93;;;174.20;;
46921;SDS011;44039;48.336;10.454;2022-07-29T12:15:38;180.52;;;173.95;;
46921;SDS011;44039;48.336;10.454;2022-07-29T12:18:32;187.20;;;180.38;;
46921;SDS011;44039;48.336;10.454;2022-07-29T12:21:20;183.25;;;176.65;;
46921;SDS011;44039;48.336;10.454;2022-07-29T12:24:11;181.23;;;174.65;;
46921;SDS011;44039;48.336;10.454;2022-07-29T12:26:59;179.75;;;173.48;;
46921;SDS011;44039;48.336;10.454;2022-07-29T12:29:57;180.85;;;174.10;;
46921;SDS011;44039;48.336;10.454;2022-07-29T12:32:47;180.45;;;173.75;;
46921;SDS011;44039;48.336;10.454;2022-07-29T12:35:35;182.38;;;175.77;;
46921;SDS011;44039;48.336;10.454;2022-07-29T12:38:22;174.52;;;168.23;;
46921;SDS011;44039;48.336;10.454;2022-07-29T12:41:09;174.10;;;167.73;;
46921;SDS011;44039;48.336;10.454;2022-07-29T12:43:57;175.43;;;169.05;;
46921;SDS011;44039;48.336;10.454;2022-07-29T12:46:44;176.52;;;169.68;;
46921;SDS011;44039;48.336;10.454;2022-07-29T12:49:35;176.50;;;169.93;;
46921;SDS011;44039;48.336;10.454;2022-07-29T12:55:11;172.90;;;166.40;;
46921;SDS011;44039;48.336;10.454;2022-07-29T12:57:58;169.93;;;163.75;;
46921;SDS011;44039;48.336;10.454;2022-07-29T13:00:45;172.65;;;166.10;;
46921;SDS011;44039;48.336;10.454;2022-07-29T13:03:42;174.48;;;167.77;;
46921;SDS011;44039;48.336;10.454;2022-07-29T13:06:44;169.98;;;163.32;;
46921;SDS011;44039;48.336;10.454;2022-07-29T13:09:40;177.43;;;170.30;;
46921;SDS011;44039;48.336;10.454;2022-07-29T13:12:29;179.02;;;172.32;;
46921;SDS011;44039;48.336;10.454;2022-07-29T13:15:16;175.60;;;169.15;;
46921;SDS011;44039;48.336;10.454;2022-07-29T13:18:03;181.52;;;174.88;;
46921;SDS011;44039;48.336;10.454;2022-07-29T13:20:51;176.35;;;169.85;;
46921;SDS011;44039;48.336;10.454;2022-07-29T13:23:38;178.70;;;172.20;;
46921;SDS011;44039;48.336;10.454;2022-07-29T13:26:25;186.30;;;179.55;;
46921;SDS011;44039;48.336;10.454;2022-07-29T13:29:12;206.40;;;199.18;;
46921;SDS011;44039;48.336;10.454;2022-07-29T13:31:59;218.50;;;210.90;;
46921;SDS011;44039;48.336;10.454;2022-07-29T13:34:47;227.82;;;219.93;;
46921;SDS011;44039;48.336;10.454;2022-07-29T13:37:35;225.93;;;218.27;;
46921;SDS011;44039;48.336;10.454;2022-07-29T13:40:25;229.18;;;221.30;;
46921;SDS011;44039;48.336;10.454;2022-07-29T13:43:12;234.93;;;226.93;;
46921;SDS011;44039;48.336;10.454;2022-07-29T13:45:59;231.93;;;223.82;;
46921;SDS011;44039;48.336;10.454;2022-07-29T13:48:46;229.20;;;221.45;;
46921;SDS011;44039;48.336;10.454;2022-07-29T13:51:33;238.50;;;230.60;;
46921;SDS011;44039;48.336;10.454;2022-07-29T13:54:21;234.63;;;227.02;;
46921;SDS011;44039;48.336;10.454;2022-07-29T13:57:08;236.82;;;229.05;;
46921;SDS011;44039;48.336;10.454;2022-07-29T13:59:57;249.55;;;240.85;;
46921;SDS011;44039;48.336;10.454;2022-07-29T14:02:44;243.43;;;235.38;;
46921;SDS011;44039;48.336;10.454;2022-07-29T14:05:31;245.40;;;237.00;;
46921;SDS011;44039;48.336;10.454;2022-07-29T14:08:18;246.57;;;238.38;;
46921;SDS011;44039;48.336;10.454;2022-07-29T14:11:05;252.40;;;244.15;;
46921;SDS011;44039;48.336;10.454;2022-07-29T14:13:52;243.60;;;235.65;;
46921;SDS011;44039;48.336;10.454;2022-07-29T14:16:39;238.82;;;230.63;;
46921;SDS011;44039;48.336;10.454;2022-07-29T14:19:37;236.40;;;228.40;;
46921;SDS011;44039;48.336;10.454;2022-07-29T14:22:25;236.50;;;228.45;;
46921;SDS011;44039;48.336;10.454;2022-07-29T14:25:12;227.07;;;219.20;;
46921;SDS011;44039;48.336;10.454;2022-07-29T14:28:01;211.02;;;203.82;;
46921;SDS011;44039;48.336;10.454;2022-07-29T14:30:48;207.77;;;200.45;;
46921;SDS011;44039;48.336;10.454;2022-07-29T14:33:35;205.90;;;198.60;;
46921;SDS011;44039;48.336;10.454;2022-07-29T14:36:22;207.43;;;200.20;;
46921;SDS011;44039;48.336;10.454;2022-07-29T14:39:09;193.15;;;185.95;;
46921;SDS011;44039;48.336;10.454;2022-07-29T14:41:56;185.38;;;178.48;;
46921;SDS011;44039;48.336;10.454;2022-07-29T14:44:43;176.55;;;170.05;;
46921;SDS011;44039;48.336;10.454;2022-07-29T14:47:32;170.13;;;163.77;;
46921;SDS011;44039;48.336;10.454;2022-07-29T14:50:19;178.88;;;172.43;;
46921;SDS011;44039;48.336;10.454;2022-07-29T14:53:17;176.63;;;169.95;;
46921;SDS011;44039;48.336;10.454;2022-07-29T14:56:04;179.45;;;172.48;;
46921;SDS011;44039;48.336;10.454;2022-07-29T14:59:11;172.70;;;166.20;;
46921;SDS011;44039;48.336;10.454;2022-07-29T15:01:58;175.00;;;168.38;;
46921;SDS011;44039;48.336;10.454;2022-07-29T15:04:45;171.55;;;165.25;;
46921;SDS011;44039;48.336;10.454;2022-07-29T15:07:34;173.82;;;167.38;;
46921;SDS011;44039;48.336;10.454;2022-07-29T15:10:21;167.90;;;161.68;;
46921;SDS011;44039;48.336;10.454;2022-07-29T15:13:10;166.18;;;159.85;;
46921;SDS011;44039;48.336;10.454;2022-07-29T15:15:57;165.18;;;159.00;;
46921;SDS011;44039;48.336;10.454;2022-07-29T15:18:46;164.30;;;158.23;;
46921;SDS011;44039;48.336;10.454;2022-07-29T15:21:33;164.80;;;158.73;;
46921;SDS011;44039;48.336;10.454;2022-07-29T15:24:27;167.27;;;161.02;;
46921;SDS011;44039;48.336;10.454;2022-07-29T15:27:14;171.70;;;165.43;;
46921;SDS011;44039;48.336;10.454;2022-07-29T15:30:01;163.77;;;157.48;;
46921;SDS011;44039;48.336;10.454;2022-07-29T15:32:48;161.63;;;155.43;;
46921;SDS011;44039;48.336;10.454;2022-07-29T15:35:41;161.13;;;154.45;;
46921;SDS011;44039;48.336;10.454;2022-07-29T15:38:28;159.02;;;153.00;;
46921;SDS011;44039;48.336;10.454;2022-07-29T15:41:15;153.40;;;147.57;;
46921;SDS011;44039;48.336;10.454;2022-07-29T15:44:03;159.90;;;153.30;;
46921;SDS011;44039;48.336;10.454;2022-07-29T15:46:50;153.10;;;146.75;;
46921;SDS011;44039;48.336;10.454;2022-07-29T15:49:49;153.38;;;146.98;;
46921;SDS011;44039;48.336;10.454;2022-07-29T15:52:36;144.02;;;138.27;;
46921;SDS011;44039;48.336;10.454;2022-07-29T15:55:26;144.00;;;138.15;;
46921;SDS011;44039;48.336;10.454;2022-07-29T15:58:13;136.77;;;131.27;;
46921;SDS011;44039;48.336;10.454;2022-07-29T16:01:00;138.00;;;132.30;;
46921;SDS011;44039;48.336;10.454;2022-07-29T16:03:48;132.45;;;127.05;;
46921;SDS011;44039;48.336;10.454;2022-07-29T16:06:35;128.35;;;123.15;;
46921;SDS011;44039;48.336;10.454;2022-07-29T16:09:22;128.82;;;123.53;;
46921;SDS011;44039;48.336;10.454;2022-07-29T16:12:09;121.85;;;117.10;;
46921;SDS011;44039;48.336;10.454;2022-07-29T16:15:01;119.15;;;114.35;;
46921;SDS011;44039;48.336;10.454;2022-07-29T16:17:55;120.20;;;115.10;;
46921;SDS011;44039;48.336;10.454;2022-07-29T16:20:42;116.40;;;111.43;;
46921;SDS011;44039;48.336;10.454;2022-07-29T16:23:29;115.53;;;110.65;;
46921;SDS011;44039;48.336;10.454;2022-07-29T16:26:16;115.90;;;111.10;;
46921;SDS011;44039;48.336;10.454;2022-07-29T16:29:05;118.65;;;113.05;;